EDFM/MHG METAR and TAF weather

Enter ICAO airport designator
Station Type Date Time Source
EDFM METAR 2018/12/13 15:20 UTC NOAA

EDFM 131520Z 03007KT 9999 SCT034 OVC052 02/M04 Q1017


Station Type Date Time Source
EDFM Decoded METAR 2018/12/13 15:20 UTC NOAA

Baden Wurttemberg, Neuostheim, Germany (EDFM) 49-28-21N 008-30-56E
Dec 13, 2018 - 10:20 AM EST / 2018.12.13 1520 UTC
Wind: from the NNE (030 degrees) at 8 MPH (7 KT):0
Visibility: greater than 7 mile(s):0
Sky conditions: overcast
Temperature: 35 F (2 C)
Windchill: 28 F (-2 C):1
Dew Point: 24 F (-4 C)
Relative Humidity: 64%
Pressure (altimeter): 30.03 in. Hg (1017 hPa)
ob: EDFM 131520Z 03007KT 9999 SCT034 OVC052 02/M04 Q1017
cycle: 15

Station Type Date Time Source
EDFM TAF 2012/03/06 06:30 UTC NOAA

TAF EDFM 060519Z 0606/0621 15004KT 9999 FEW040


Example: see airport list